sensor_id;sensor_type;location;lat;lon;timestamp;P1;durP1;ratioP1;P2;durP2;ratioP2
2748;SDS011;1382;52.142;11.618;2023-05-02T00:02:16;4.60;;;4.20;;
2748;SDS011;1382;52.142;11.618;2023-05-02T00:04:43;5.93;;;3.70;;
2748;SDS011;1382;52.142;11.618;2023-05-02T00:07:09;5.23;;;4.73;;
2748;SDS011;1382;52.142;11.618;2023-05-02T00:09:38;6.30;;;4.10;;
2748;SDS011;1382;52.142;11.618;2023-05-02T00:12:04;4.23;;;3.70;;
2748;SDS011;1382;52.142;11.618;2023-05-02T00:14:31;6.73;;;3.80;;
2748;SDS011;1382;52.142;11.618;2023-05-02T00:16:58;3.47;;;3.17;;
2748;SDS011;1382;52.142;11.618;2023-05-02T00:19:25;5.63;;;4.30;;
2748;SDS011;1382;52.142;11.618;2023-05-02T00:21:51;5.43;;;3.57;;
2748;SDS011;1382;52.142;11.618;2023-05-02T00:24:18;4.53;;;2.90;;
2748;SDS011;1382;52.142;11.618;2023-05-02T00:26:46;4.30;;;3.53;;
2748;SDS011;1382;52.142;11.618;2023-05-02T00:29:13;7.93;;;3.70;;
2748;SDS011;1382;52.142;11.618;2023-05-02T00:31:39;4.03;;;3.20;;
2748;SDS011;1382;52.142;11.618;2023-05-02T00:34:06;4.90;;;3.33;;
2748;SDS011;1382;52.142;11.618;2023-05-02T00:36:33;4.47;;;3.20;;
2748;SDS011;1382;52.142;11.618;2023-05-02T00:39:00;7.17;;;3.90;;
2748;SDS011;1382;52.142;11.618;2023-05-02T00:41:26;3.13;;;2.80;;
2748;SDS011;1382;52.142;11.618;2023-05-02T00:43:54;4.83;;;3.30;;
2748;SDS011;1382;52.142;11.618;2023-05-02T00:46:21;5.00;;;2.90;;
2748;SDS011;1382;52.142;11.618;2023-05-02T00:48:48;3.57;;;2.60;;
2748;SDS011;1382;52.142;11.618;2023-05-02T00:51:15;4.73;;;3.30;;
2748;SDS011;1382;52.142;11.618;2023-05-02T00:53:41;3.40;;;3.10;;
2748;SDS011;1382;52.142;11.618;2023-05-02T00:56:08;2.67;;;2.43;;
2748;SDS011;1382;52.142;11.618;2023-05-02T00:58:35;4.70;;;2.90;;
2748;SDS011;1382;52.142;11.618;2023-05-02T01:01:14;4.70;;;3.57;;
2748;SDS011;1382;52.142;11.618;2023-05-02T01:03:51;5.60;;;3.37;;
2748;SDS011;1382;52.142;11.618;2023-05-02T01:06:30;4.23;;;3.53;;
2748;SDS011;1382;52.142;11.618;2023-05-02T01:09:08;4.20;;;3.17;;
2748;SDS011;1382;52.142;11.618;2023-05-02T01:11:46;3.17;;;2.50;;
2748;SDS011;1382;52.142;11.618;2023-05-02T01:14:17;3.60;;;2.83;;
2748;SDS011;1382;52.142;11.618;2023-05-02T01:16:45;3.93;;;3.53;;
2748;SDS011;1382;52.142;11.618;2023-05-02T01:19:17;4.73;;;3.17;;
2748;SDS011;1382;52.142;11.618;2023-05-02T01:21:50;7.40;;;3.30;;
2748;SDS011;1382;52.142;11.618;2023-05-02T01:24:21;4.80;;;2.90;;
2748;SDS011;1382;52.142;11.618;2023-05-02T01:26:52;4.00;;;2.60;;
2748;SDS011;1382;52.142;11.618;2023-05-02T01:29:27;3.67;;;3.07;;
2748;SDS011;1382;52.142;11.618;2023-05-02T01:31:56;3.53;;;3.23;;
2748;SDS011;1382;52.142;11.618;2023-05-02T01:34:25;5.60;;;3.27;;
2748;SDS011;1382;52.142;11.618;2023-05-02T01:36:54;5.03;;;2.73;;
2748;SDS011;1382;52.142;11.618;2023-05-02T01:39:24;3.43;;;2.60;;
2748;SDS011;1382;52.142;11.618;2023-05-02T01:41:52;5.57;;;3.20;;
2748;SDS011;1382;52.142;11.618;2023-05-02T01:44:22;5.20;;;2.90;;
2748;SDS011;1382;52.142;11.618;2023-05-02T01:46:52;5.97;;;3.20;;
2748;SDS011;1382;52.142;11.618;2023-05-02T01:49:21;4.23;;;2.30;;
2748;SDS011;1382;52.142;11.618;2023-05-02T01:51:49;3.47;;;2.30;;
2748;SDS011;1382;52.142;11.618;2023-05-02T01:54:17;2.70;;;2.30;;
2748;SDS011;1382;52.142;11.618;2023-05-02T01:56:46;2.80;;;2.47;;
2748;SDS011;1382;52.142;11.618;2023-05-02T01:59:14;2.70;;;2.50;;
2748;SDS011;1382;52.142;11.618;2023-05-02T02:01:44;3.47;;;2.40;;
2748;SDS011;1382;52.142;11.618;2023-05-02T02:04:13;5.00;;;2.47;;
2748;SDS011;1382;52.142;11.618;2023-05-02T02:06:43;7.10;;;2.87;;
2748;SDS011;1382;52.142;11.618;2023-05-02T02:09:13;3.30;;;3.00;;
2748;SDS011;1382;52.142;11.618;2023-05-02T02:11:42;6.80;;;3.93;;
2748;SDS011;1382;52.142;11.618;2023-05-02T02:14:13;4.87;;;2.43;;
2748;SDS011;1382;52.142;11.618;2023-05-02T02:16:44;4.37;;;2.90;;
2748;SDS011;1382;52.142;11.618;2023-05-02T02:19:13;4.10;;;3.37;;
2748;SDS011;1382;52.142;11.618;2023-05-02T02:21:41;3.00;;;2.57;;
2748;SDS011;1382;52.142;11.618;2023-05-02T02:24:08;3.60;;;2.70;;
2748;SDS011;1382;52.142;11.618;2023-05-02T02:26:37;3.93;;;2.70;;
2748;SDS011;1382;52.142;11.618;2023-05-02T02:29:05;4.80;;;3.00;;
2748;SDS011;1382;52.142;11.618;2023-05-02T02:31:31;6.00;;;2.77;;
2748;SDS011;1382;52.142;11.618;2023-05-02T02:33:58;3.07;;;2.53;;
2748;SDS011;1382;52.142;11.618;2023-05-02T02:36:30;4.90;;;3.27;;
2748;SDS011;1382;52.142;11.618;2023-05-02T02:39:08;4.00;;;2.93;;
2748;SDS011;1382;52.142;11.618;2023-05-02T02:41:46;3.40;;;2.70;;
2748;SDS011;1382;52.142;11.618;2023-05-02T02:44:21;3.90;;;3.50;;
2748;SDS011;1382;52.142;11.618;2023-05-02T02:46:59;4.23;;;3.20;;
2748;SDS011;1382;52.142;11.618;2023-05-02T02:49:31;4.20;;;3.80;;
2748;SDS011;1382;52.142;11.618;2023-05-02T02:52:12;3.63;;;2.70;;
2748;SDS011;1382;52.142;11.618;2023-05-02T02:54:49;5.20;;;3.30;;
2748;SDS011;1382;52.142;11.618;2023-05-02T02:57:23;3.10;;;2.73;;
2748;SDS011;1382;52.142;11.618;2023-05-02T02:59:57;5.37;;;3.00;;
2748;SDS011;1382;52.142;11.618;2023-05-02T03:02:29;5.10;;;2.90;;
2748;SDS011;1382;52.142;11.618;2023-05-02T03:04:58;5.83;;;2.97;;
2748;SDS011;1382;52.142;11.618;2023-05-02T03:07:28;4.83;;;3.20;;
2748;SDS011;1382;52.142;11.618;2023-05-02T03:09:55;3.93;;;2.90;;
2748;SDS011;1382;52.142;11.618;2023-05-02T03:12:23;2.40;;;2.20;;
2748;SDS011;1382;52.142;11.618;2023-05-02T03:14:49;5.90;;;3.50;;
2748;SDS011;1382;52.142;11.618;2023-05-02T03:17:16;5.53;;;3.60;;
2748;SDS011;1382;52.142;11.618;2023-05-02T03:19:43;6.40;;;2.77;;
2748;SDS011;1382;52.142;11.618;2023-05-02T03:22:10;3.37;;;3.00;;
2748;SDS011;1382;52.142;11.618;2023-05-02T03:24:37;3.53;;;2.97;;
2748;SDS011;1382;52.142;11.618;2023-05-02T03:27:04;5.43;;;3.43;;
2748;SDS011;1382;52.142;11.618;2023-05-02T03:29:31;4.83;;;3.33;;
2748;SDS011;1382;52.142;11.618;2023-05-02T03:31:58;8.83;;;2.93;;
2748;SDS011;1382;52.142;11.618;2023-05-02T03:34:24;5.43;;;3.47;;
2748;SDS011;1382;52.142;11.618;2023-05-02T03:36:51;7.10;;;3.90;;
2748;SDS011;1382;52.142;11.618;2023-05-02T03:39:18;4.63;;;3.60;;
2748;SDS011;1382;52.142;11.618;2023-05-02T03:41:46;4.20;;;3.10;;
2748;SDS011;1382;52.142;11.618;2023-05-02T03:44:12;5.23;;;3.63;;
2748;SDS011;1382;52.142;11.618;2023-05-02T03:46:39;5.97;;;4.03;;
2748;SDS011;1382;52.142;11.618;2023-05-02T03:49:06;6.30;;;4.23;;
2748;SDS011;1382;52.142;11.618;2023-05-02T03:51:33;4.97;;;4.47;;
2748;SDS011;1382;52.142;11.618;2023-05-02T03:53:59;6.90;;;4.80;;
2748;SDS011;1382;52.142;11.618;2023-05-02T03:56:26;7.03;;;4.50;;
2748;SDS011;1382;52.142;11.618;2023-05-02T03:58:54;6.87;;;4.80;;
2748;SDS011;1382;52.142;11.618;2023-05-02T04:01:21;12.27;;;4.97;;
2748;SDS011;1382;52.142;11.618;2023-05-02T04:03:48;5.97;;;5.37;;
2748;SDS011;1382;52.142;11.618;2023-05-02T04:06:15;8.20;;;5.77;;
2748;SDS011;1382;52.142;11.618;2023-05-02T04:08:42;9.03;;;5.73;;
2748;SDS011;1382;52.142;11.618;2023-05-02T04:11:09;10.53;;;5.93;;
2748;SDS011;1382;52.142;11.618;2023-05-02T04:13:35;6.40;;;5.57;;
2748;SDS011;1382;52.142;11.618;2023-05-02T04:16:04;10.33;;;6.70;;
2748;SDS011;1382;52.142;11.618;2023-05-02T04:18:30;10.07;;;6.80;;
2748;SDS011;1382;52.142;11.618;2023-05-02T04:20:57;7.83;;;6.53;;
2748;SDS011;1382;52.142;11.618;2023-05-02T04:23:24;9.23;;;7.10;;
2748;SDS011;1382;52.142;11.618;2023-05-02T04:25:51;9.90;;;6.00;;
2748;SDS011;1382;52.142;11.618;2023-05-02T04:28:19;9.00;;;5.63;;
2748;SDS011;1382;52.142;11.618;2023-05-02T04:30:46;7.93;;;6.43;;
2748;SDS011;1382;52.142;11.618;2023-05-02T04:33:14;14.60;;;8.30;;
2748;SDS011;1382;52.142;11.618;2023-05-02T04:35:41;13.43;;;7.60;;
2748;SDS011;1382;52.142;11.618;2023-05-02T04:38:08;11.13;;;7.50;;
2748;SDS011;1382;52.142;11.618;2023-05-02T04:40:34;10.63;;;6.57;;
2748;SDS011;1382;52.142;11.618;2023-05-02T04:43:01;10.40;;;7.10;;
2748;SDS011;1382;52.142;11.618;2023-05-02T04:45:28;16.70;;;8.23;;
2748;SDS011;1382;52.142;11.618;2023-05-02T04:47:54;9.10;;;6.73;;
2748;SDS011;1382;52.142;11.618;2023-05-02T04:50:22;9.57;;;7.13;;
2748;SDS011;1382;52.142;11.618;2023-05-02T04:52:49;10.40;;;6.67;;
2748;SDS011;1382;52.142;11.618;2023-05-02T04:55:16;10.23;;;7.33;;
2748;SDS011;1382;52.142;11.618;2023-05-02T04:57:43;10.50;;;6.53;;
2748;SDS011;1382;52.142;11.618;2023-05-02T05:00:10;8.67;;;6.27;;
2748;SDS011;1382;52.142;11.618;2023-05-02T05:02:37;10.40;;;7.30;;
2748;SDS011;1382;52.142;11.618;2023-05-02T05:05:04;8.33;;;6.50;;
2748;SDS011;1382;52.142;11.618;2023-05-02T05:07:32;9.80;;;7.07;;
2748;SDS011;1382;52.142;11.618;2023-05-02T05:09:59;13.60;;;7.37;;
2748;SDS011;1382;52.142;11.618;2023-05-02T05:12:26;10.93;;;6.70;;
2748;SDS011;1382;52.142;11.618;2023-05-02T05:14:53;10.87;;;7.83;;
2748;SDS011;1382;52.142;11.618;2023-05-02T05:17:20;12.80;;;7.73;;
2748;SDS011;1382;52.142;11.618;2023-05-02T05:19:46;12.10;;;7.80;;
2748;SDS011;1382;52.142;11.618;2023-05-02T05:22:13;16.67;;;8.10;;
2748;SDS011;1382;52.142;11.618;2023-05-02T05:24:41;12.50;;;8.83;;
2748;SDS011;1382;52.142;11.618;2023-05-02T05:27:08;13.20;;;8.57;;
2748;SDS011;1382;52.142;11.618;2023-05-02T05:29:34;13.43;;;9.60;;
2748;SDS011;1382;52.142;11.618;2023-05-02T05:32:01;16.43;;;9.10;;
2748;SDS011;1382;52.142;11.618;2023-05-02T05:34:28;15.40;;;9.13;;
2748;SDS011;1382;52.142;11.618;2023-05-02T05:36:54;12.80;;;9.43;;
2748;SDS011;1382;52.142;11.618;2023-05-02T05:39:21;13.33;;;8.20;;
2748;SDS011;1382;52.142;11.618;2023-05-02T05:41:49;12.83;;;9.50;;
2748;SDS011;1382;52.142;11.618;2023-05-02T05:44:16;16.13;;;9.37;;
2748;SDS011;1382;52.142;11.618;2023-05-02T05:49:55;14.03;;;9.17;;
2748;SDS011;1382;52.142;11.618;2023-05-02T05:52:23;13.93;;;9.60;;
2748;SDS011;1382;52.142;11.618;2023-05-02T05:54:52;21.07;;;10.27;;
2748;SDS011;1382;52.142;11.618;2023-05-02T05:57:20;16.90;;;10.67;;
2748;SDS011;1382;52.142;11.618;2023-05-02T05:59:47;16.93;;;10.60;;
2748;SDS011;1382;52.142;11.618;2023-05-02T06:02:13;23.20;;;13.70;;
2748;SDS011;1382;52.142;11.618;2023-05-02T06:04:40;14.83;;;10.57;;
2748;SDS011;1382;52.142;11.618;2023-05-02T06:07:07;14.50;;;11.53;;
2748;SDS011;1382;52.142;11.618;2023-05-02T06:09:34;19.80;;;11.80;;
2748;SDS011;1382;52.142;11.618;2023-05-02T06:12:00;18.80;;;12.20;;
2748;SDS011;1382;52.142;11.618;2023-05-02T06:14:28;18.97;;;12.83;;
2748;SDS011;1382;52.142;11.618;2023-05-02T06:16:57;30.00;;;14.83;;
2748;SDS011;1382;52.142;11.618;2023-05-02T06:19:24;21.90;;;15.47;;
2748;SDS011;1382;52.142;11.618;2023-05-02T06:21:51;20.37;;;13.77;;
2748;SDS011;1382;52.142;11.618;2023-05-02T06:24:17;21.40;;;14.57;;
2748;SDS011;1382;52.142;11.618;2023-05-02T06:26:44;20.53;;;13.73;;
2748;SDS011;1382;52.142;11.618;2023-05-02T06:29:11;22.73;;;14.90;;
2748;SDS011;1382;52.142;11.618;2023-05-02T06:31:39;25.53;;;16.80;;
2748;SDS011;1382;52.142;11.618;2023-05-02T06:34:06;21.90;;;15.30;;
2748;SDS011;1382;52.142;11.618;2023-05-02T06:36:33;22.80;;;16.17;;
2748;SDS011;1382;52.142;11.618;2023-05-02T06:38:59;26.10;;;15.50;;
2748;SDS011;1382;52.142;11.618;2023-05-02T06:41:26;23.50;;;16.70;;
2748;SDS011;1382;52.142;11.618;2023-05-02T06:43:53;26.30;;;16.17;;
2748;SDS011;1382;52.142;11.618;2023-05-02T06:46:19;34.93;;;17.80;;
2748;SDS011;1382;52.142;11.618;2023-05-02T06:48:48;26.73;;;18.00;;
2748;SDS011;1382;52.142;11.618;2023-05-02T06:51:14;29.47;;;18.80;;
2748;SDS011;1382;52.142;11.618;2023-05-02T06:53:41;26.13;;;18.63;;
2748;SDS011;1382;52.142;11.618;2023-05-02T06:56:08;25.23;;;18.37;;
2748;SDS011;1382;52.142;11.618;2023-05-02T06:58:34;29.87;;;16.87;;
2748;SDS011;1382;52.142;11.618;2023-05-02T07:01:01;24.90;;;17.87;;
2748;SDS011;1382;52.142;11.618;2023-05-02T07:03:28;25.93;;;16.67;;
2748;SDS011;1382;52.142;11.618;2023-05-02T07:05:56;29.87;;;17.47;;
2748;SDS011;1382;52.142;11.618;2023-05-02T07:08:23;48.93;;;17.40;;
2748;SDS011;1382;52.142;11.618;2023-05-02T07:10:50;20.60;;;15.03;;
2748;SDS011;1382;52.142;11.618;2023-05-02T07:13:17;25.70;;;17.53;;
2748;SDS011;1382;52.142;11.618;2023-05-02T07:15:43;26.57;;;16.03;;
2748;SDS011;1382;52.142;11.618;2023-05-02T07:18:10;25.40;;;17.80;;
2748;SDS011;1382;52.142;11.618;2023-05-02T07:20:37;25.60;;;18.47;;
2748;SDS011;1382;52.142;11.618;2023-05-02T07:23:07;29.80;;;16.90;;
2748;SDS011;1382;52.142;11.618;2023-05-02T07:25:35;23.53;;;17.00;;
2748;SDS011;1382;52.142;11.618;2023-05-02T07:28:02;23.80;;;16.10;;
2748;SDS011;1382;52.142;11.618;2023-05-02T07:30:31;22.33;;;17.20;;
2748;SDS011;1382;52.142;11.618;2023-05-02T07:32:59;28.20;;;17.40;;
2748;SDS011;1382;52.142;11.618;2023-05-02T07:46:31;16.90;;;11.90;;
2748;SDS011;1382;52.142;11.618;2023-05-02T07:48:58;17.40;;;12.40;;
2748;SDS011;1382;52.142;11.618;2023-05-02T07:51:25;15.70;;;11.67;;
2748;SDS011;1382;52.142;11.618;2023-05-02T07:53:52;14.23;;;11.93;;
2748;SDS011;1382;52.142;11.618;2023-05-02T07:56:19;13.30;;;10.53;;
2748;SDS011;1382;52.142;11.618;2023-05-02T07:58:45;15.43;;;10.67;;
2748;SDS011;1382;52.142;11.618;2023-05-02T08:01:12;12.53;;;8.83;;
2748;SDS011;1382;52.142;11.618;2023-05-02T08:03:40;12.63;;;8.70;;
2748;SDS011;1382;52.142;11.618;2023-05-02T08:06:07;13.40;;;10.23;;
2748;SDS011;1382;52.142;11.618;2023-05-02T08:08:34;10.87;;;8.00;;
2748;SDS011;1382;52.142;11.618;2023-05-02T08:11:01;11.67;;;8.70;;
2748;SDS011;1382;52.142;11.618;2023-05-02T08:13:27;9.23;;;7.40;;
2748;SDS011;1382;52.142;11.618;2023-05-02T08:15:54;12.17;;;9.27;;
2748;SDS011;1382;52.142;11.618;2023-05-02T08:18:21;8.30;;;6.90;;
2748;SDS011;1382;52.142;11.618;2023-05-02T08:20:49;12.23;;;9.73;;
2748;SDS011;1382;52.142;11.618;2023-05-02T08:23:16;10.20;;;7.90;;
2748;SDS011;1382;52.142;11.618;2023-05-02T08:25:43;15.10;;;8.23;;
2748;SDS011;1382;52.142;11.618;2023-05-02T08:28:09;8.73;;;7.83;;
2748;SDS011;1382;52.142;11.618;2023-05-02T08:30:36;9.00;;;7.73;;
2748;SDS011;1382;52.142;11.618;2023-05-02T08:33:03;7.00;;;5.70;;
2748;SDS011;1382;52.142;11.618;2023-05-02T08:35:29;7.30;;;5.60;;
2748;SDS011;1382;52.142;11.618;2023-05-02T08:37:58;6.67;;;5.70;;
2748;SDS011;1382;52.142;11.618;2023-05-02T08:40:24;7.23;;;5.37;;
2748;SDS011;1382;52.142;11.618;2023-05-02T08:43:07;6.10;;;5.13;;
2748;SDS011;1382;52.142;11.618;2023-05-02T08:45:36;5.13;;;4.27;;
2748;SDS011;1382;52.142;11.618;2023-05-02T08:48:05;4.63;;;4.10;;
2748;SDS011;1382;52.142;11.618;2023-05-02T08:50:34;5.20;;;3.33;;
2748;SDS011;1382;52.142;11.618;2023-05-02T08:53:04;5.47;;;3.47;;
2748;SDS011;1382;52.142;11.618;2023-05-02T08:55:31;4.40;;;3.00;;
2748;SDS011;1382;52.142;11.618;2023-05-02T08:57:59;4.90;;;4.20;;
2748;SDS011;1382;52.142;11.618;2023-05-02T09:00:29;6.20;;;4.50;;
2748;SDS011;1382;52.142;11.618;2023-05-02T09:02:59;4.87;;;4.47;;
2748;SDS011;1382;52.142;11.618;2023-05-02T09:05:34;5.70;;;4.20;;
2748;SDS011;1382;52.142;11.618;2023-05-02T09:08:06;5.90;;;4.37;;
2748;SDS011;1382;52.142;11.618;2023-05-02T09:10:33;5.47;;;4.67;;
2748;SDS011;1382;52.142;11.618;2023-05-02T09:15:57;9.10;;;4.93;;
2748;SDS011;1382;52.142;11.618;2023-05-02T09:18:28;6.70;;;4.77;;
2748;SDS011;1382;52.142;11.618;2023-05-02T09:20:57;7.67;;;4.50;;
2748;SDS011;1382;52.142;11.618;2023-05-02T09:23:32;6.30;;;4.27;;
2748;SDS011;1382;52.142;11.618;2023-05-02T09:25:59;6.03;;;3.90;;
2748;SDS011;1382;52.142;11.618;2023-05-02T09:28:39;5.50;;;4.67;;
2748;SDS011;1382;52.142;11.618;2023-05-02T09:31:08;7.17;;;5.07;;
2748;SDS011;1382;52.142;11.618;2023-05-02T09:33:36;8.17;;;5.47;;
2748;SDS011;1382;52.142;11.618;2023-05-02T09:36:04;7.57;;;5.20;;
2748;SDS011;1382;52.142;11.618;2023-05-02T09:38:33;10.87;;;5.77;;
2748;SDS011;1382;52.142;11.618;2023-05-02T09:40:59;6.60;;;4.77;;
2748;SDS011;1382;52.142;11.618;2023-05-02T09:43:26;12.53;;;6.87;;
2748;SDS011;1382;52.142;11.618;2023-05-02T09:45:56;12.33;;;6.80;;
2748;SDS011;1382;52.142;11.618;2023-05-02T09:48:25;10.83;;;5.53;;
2748;SDS011;1382;52.142;11.618;2023-05-02T09:50:52;11.87;;;5.50;;
2748;SDS011;1382;52.142;11.618;2023-05-02T09:53:19;13.70;;;5.17;;
2748;SDS011;1382;52.142;11.618;2023-05-02T09:55:47;9.90;;;5.37;;
2748;SDS011;1382;52.142;11.618;2023-05-02T09:58:20;12.57;;;5.20;;
2748;SDS011;1382;52.142;11.618;2023-05-02T10:00:48;6.93;;;4.23;;
2748;SDS011;1382;52.142;11.618;2023-05-02T10:03:16;7.40;;;4.83;;
2748;SDS011;1382;52.142;11.618;2023-05-02T10:05:44;12.10;;;4.20;;
2748;SDS011;1382;52.142;11.618;2023-05-02T10:08:12;12.53;;;5.07;;
2748;SDS011;1382;52.142;11.618;2023-05-02T10:11:01;10.70;;;4.20;;
2748;SDS011;1382;52.142;11.618;2023-05-02T10:13:32;6.07;;;4.00;;
2748;SDS011;1382;52.142;11.618;2023-05-02T10:16:00;9.07;;;4.50;;
2748;SDS011;1382;52.142;11.618;2023-05-02T10:18:30;10.73;;;4.70;;
2748;SDS011;1382;52.142;11.618;2023-05-02T10:21:07;10.23;;;3.60;;
2748;SDS011;1382;52.142;11.618;2023-05-02T10:23:35;6.77;;;3.53;;
2748;SDS011;1382;52.142;11.618;2023-05-02T10:26:07;7.23;;;4.23;;
2748;SDS011;1382;52.142;11.618;2023-05-02T10:28:35;6.37;;;3.27;;
2748;SDS011;1382;52.142;11.618;2023-05-02T10:31:03;7.47;;;3.63;;
2748;SDS011;1382;52.142;11.618;2023-05-02T10:33:31;9.17;;;3.50;;
2748;SDS011;1382;52.142;11.618;2023-05-02T10:36:00;13.90;;;3.63;;
2748;SDS011;1382;52.142;11.618;2023-05-02T10:38:27;9.00;;;3.23;;
2748;SDS011;1382;52.142;11.618;2023-05-02T10:40:55;6.30;;;3.67;;
2748;SDS011;1382;52.142;11.618;2023-05-02T10:43:27;7.20;;;3.80;;
2748;SDS011;1382;52.142;11.618;2023-05-02T10:45:56;8.40;;;3.40;;
2748;SDS011;1382;52.142;11.618;2023-05-02T10:48:24;8.17;;;3.40;;
2748;SDS011;1382;52.142;11.618;2023-05-02T10:50:51;4.63;;;3.90;;
2748;SDS011;1382;52.142;11.618;2023-05-02T10:53:26;7.93;;;4.40;;
2748;SDS011;1382;52.142;11.618;2023-05-02T10:56:07;8.30;;;3.30;;
2748;SDS011;1382;52.142;11.618;2023-05-02T10:58:37;5.13;;;2.90;;
2748;SDS011;1382;52.142;11.618;2023-05-02T11:03:59;4.90;;;2.70;;
2748;SDS011;1382;52.142;11.618;2023-05-02T11:06:27;9.17;;;2.63;;
2748;SDS011;1382;52.142;11.618;2023-05-02T11:11:56;10.30;;;2.90;;
2748;SDS011;1382;52.142;11.618;2023-05-02T11:17:11;9.70;;;3.73;;
2748;SDS011;1382;52.142;11.618;2023-05-02T11:22:54;8.20;;;3.03;;
2748;SDS011;1382;52.142;11.618;2023-05-02T11:25:29;10.97;;;3.50;;
2748;SDS011;1382;52.142;11.618;2023-05-02T11:27:56;8.73;;;3.90;;
2748;SDS011;1382;52.142;11.618;2023-05-02T11:30:37;9.20;;;4.17;;
2748;SDS011;1382;52.142;11.618;2023-05-02T11:33:18;10.97;;;4.07;;
2748;SDS011;1382;52.142;11.618;2023-05-02T11:35:45;10.80;;;3.30;;
2748;SDS011;1382;52.142;11.618;2023-05-02T11:38:17;11.63;;;3.63;;
2748;SDS011;1382;52.142;11.618;2023-05-02T11:40:54;11.53;;;3.40;;
2748;SDS011;1382;52.142;11.618;2023-05-02T11:43:23;5.70;;;3.00;;
2748;SDS011;1382;52.142;11.618;2023-05-02T11:45:53;10.40;;;2.80;;
2748;SDS011;1382;52.142;11.618;2023-05-02T11:48:21;11.73;;;3.40;;
2748;SDS011;1382;52.142;11.618;2023-05-02T11:50:49;8.40;;;3.40;;
2748;SDS011;1382;52.142;11.618;2023-05-02T11:53:17;13.33;;;4.67;;
2748;SDS011;1382;52.142;11.618;2023-05-02T11:55:46;7.97;;;3.60;;
2748;SDS011;1382;52.142;11.618;2023-05-02T11:58:14;13.87;;;3.70;;
2748;SDS011;1382;52.142;11.618;2023-05-02T12:00:42;6.10;;;2.90;;
2748;SDS011;1382;52.142;11.618;2023-05-02T12:03:18;9.97;;;3.43;;
2748;SDS011;1382;52.142;11.618;2023-05-02T12:05:49;10.03;;;3.63;;
2748;SDS011;1382;52.142;11.618;2023-05-02T12:08:17;9.63;;;3.97;;
2748;SDS011;1382;52.142;11.618;2023-05-02T12:10:45;9.27;;;3.80;;
2748;SDS011;1382;52.142;11.618;2023-05-02T12:13:12;6.77;;;3.40;;
2748;SDS011;1382;52.142;11.618;2023-05-02T12:15:39;10.10;;;4.00;;
2748;SDS011;1382;52.142;11.618;2023-05-02T12:18:06;11.20;;;3.80;;
2748;SDS011;1382;52.142;11.618;2023-05-02T12:20:35;7.50;;;3.33;;
2748;SDS011;1382;52.142;11.618;2023-05-02T12:23:02;5.17;;;2.60;;
2748;SDS011;1382;52.142;11.618;2023-05-02T12:25:30;12.27;;;3.60;;
2748;SDS011;1382;52.142;11.618;2023-05-02T12:27:57;12.67;;;2.77;;
2748;SDS011;1382;52.142;11.618;2023-05-02T12:30:25;10.80;;;3.10;;
2748;SDS011;1382;52.142;11.618;2023-05-02T12:32:54;6.60;;;3.00;;
2748;SDS011;1382;52.142;11.618;2023-05-02T12:35:21;11.30;;;3.70;;
2748;SDS011;1382;52.142;11.618;2023-05-02T12:37:49;12.53;;;3.33;;
2748;SDS011;1382;52.142;11.618;2023-05-02T12:40:17;5.93;;;2.73;;
2748;SDS011;1382;52.142;11.618;2023-05-02T12:42:56;8.83;;;2.83;;
2748;SDS011;1382;52.142;11.618;2023-05-02T12:45:24;5.83;;;2.77;;
2748;SDS011;1382;52.142;11.618;2023-05-02T12:47:50;9.10;;;2.53;;
2748;SDS011;1382;52.142;11.618;2023-05-02T12:50:17;16.93;;;3.50;;
2748;SDS011;1382;52.142;11.618;2023-05-02T12:52:44;6.73;;;2.53;;
2748;SDS011;1382;52.142;11.618;2023-05-02T12:55:16;6.07;;;3.20;;
2748;SDS011;1382;52.142;11.618;2023-05-02T12:57:43;8.30;;;2.30;;
2748;SDS011;1382;52.142;11.618;2023-05-02T13:00:11;5.30;;;2.90;;
2748;SDS011;1382;52.142;11.618;2023-05-02T13:02:38;8.73;;;3.00;;
2748;SDS011;1382;52.142;11.618;2023-05-02T13:05:12;8.27;;;3.10;;
2748;SDS011;1382;52.142;11.618;2023-05-02T13:07:39;7.90;;;2.37;;
2748;SDS011;1382;52.142;11.618;2023-05-02T13:10:06;6.90;;;2.67;;
2748;SDS011;1382;52.142;11.618;2023-05-02T13:12:34;5.43;;;2.60;;
2748;SDS011;1382;52.142;11.618;2023-05-02T13:15:01;6.70;;;2.90;;
2748;SDS011;1382;52.142;11.618;2023-05-02T13:17:28;4.37;;;2.33;;
2748;SDS011;1382;52.142;11.618;2023-05-02T13:19:55;3.93;;;2.40;;
2748;SDS011;1382;52.142;11.618;2023-05-02T13:22:27;11.70;;;3.90;;
2748;SDS011;1382;52.142;11.618;2023-05-02T13:24:54;8.63;;;2.40;;
2748;SDS011;1382;52.142;11.618;2023-05-02T13:27:21;11.27;;;3.63;;
2748;SDS011;1382;52.142;11.618;2023-05-02T13:29:50;5.90;;;2.87;;
2748;SDS011;1382;52.142;11.618;2023-05-02T13:32:17;4.23;;;2.40;;
2748;SDS011;1382;52.142;11.618;2023-05-02T13:34:44;12.80;;;2.53;;
2748;SDS011;1382;52.142;11.618;2023-05-02T13:37:11;3.70;;;2.60;;
2748;SDS011;1382;52.142;11.618;2023-05-02T13:39:37;6.50;;;2.80;;
2748;SDS011;1382;52.142;11.618;2023-05-02T13:42:04;5.80;;;2.70;;
2748;SDS011;1382;52.142;11.618;2023-05-02T13:44:31;10.50;;;2.97;;
2748;SDS011;1382;52.142;11.618;2023-05-02T13:46:59;6.83;;;2.70;;
2748;SDS011;1382;52.142;11.618;2023-05-02T13:49:26;8.03;;;3.23;;
2748;SDS011;1382;52.142;11.618;2023-05-02T13:51:53;8.80;;;2.97;;
2748;SDS011;1382;52.142;11.618;2023-05-02T13:54:19;4.00;;;2.40;;
2748;SDS011;1382;52.142;11.618;2023-05-02T13:56:46;8.03;;;3.20;;
2748;SDS011;1382;52.142;11.618;2023-05-02T13:59:13;9.60;;;2.53;;
2748;SDS011;1382;52.142;11.618;2023-05-02T14:01:39;9.83;;;2.57;;
2748;SDS011;1382;52.142;11.618;2023-05-02T14:04:07;7.13;;;2.87;;
2748;SDS011;1382;52.142;11.618;2023-05-02T14:06:34;7.17;;;2.70;;
2748;SDS011;1382;52.142;11.618;2023-05-02T14:09:05;7.20;;;2.90;;
2748;SDS011;1382;52.142;11.618;2023-05-02T14:11:31;6.27;;;3.70;;
2748;SDS011;1382;52.142;11.618;2023-05-02T14:13:58;8.73;;;3.23;;
2748;SDS011;1382;52.142;11.618;2023-05-02T14:16:25;10.23;;;2.93;;
2748;SDS011;1382;52.142;11.618;2023-05-02T14:18:51;7.00;;;2.80;;
2748;SDS011;1382;52.142;11.618;2023-05-02T14:21:20;7.37;;;2.80;;
2748;SDS011;1382;52.142;11.618;2023-05-02T14:23:46;8.33;;;3.00;;
2748;SDS011;1382;52.142;11.618;2023-05-02T14:26:13;7.33;;;2.70;;
2748;SDS011;1382;52.142;11.618;2023-05-02T14:28:40;12.13;;;4.00;;
2748;SDS011;1382;52.142;11.618;2023-05-02T14:31:07;7.73;;;2.90;;
2748;SDS011;1382;52.142;11.618;2023-05-02T14:33:34;8.53;;;3.63;;
2748;SDS011;1382;52.142;11.618;2023-05-02T14:36:14;8.37;;;3.20;;
2748;SDS011;1382;52.142;11.618;2023-05-02T14:38:42;9.23;;;3.23;;
2748;SDS011;1382;52.142;11.618;2023-05-02T14:41:16;14.53;;;4.03;;
2748;SDS011;1382;52.142;11.618;2023-05-02T14:43:46;6.90;;;3.30;;
2748;SDS011;1382;52.142;11.618;2023-05-02T14:46:18;9.83;;;4.20;;
2748;SDS011;1382;52.142;11.618;2023-05-02T14:48:45;9.03;;;3.00;;
2748;SDS011;1382;52.142;11.618;2023-05-02T14:51:12;8.30;;;3.20;;
2748;SDS011;1382;52.142;11.618;2023-05-02T14:53:39;6.63;;;3.27;;
2748;SDS011;1382;52.142;11.618;2023-05-02T14:56:11;3.60;;;2.87;;
2748;SDS011;1382;52.142;11.618;2023-05-02T14:58:38;7.00;;;3.40;;
2748;SDS011;1382;52.142;11.618;2023-05-02T15:01:06;15.93;;;3.40;;
2748;SDS011;1382;52.142;11.618;2023-05-02T15:03:39;5.27;;;2.83;;
2748;SDS011;1382;52.142;11.618;2023-05-02T15:06:27;6.53;;;3.20;;
2748;SDS011;1382;52.142;11.618;2023-05-02T15:08:54;6.90;;;3.13;;
2748;SDS011;1382;52.142;11.618;2023-05-02T15:11:22;8.80;;;3.40;;
2748;SDS011;1382;52.142;11.618;2023-05-02T15:13:49;6.70;;;3.17;;
2748;SDS011;1382;52.142;11.618;2023-05-02T15:16:17;11.30;;;3.40;;
2748;SDS011;1382;52.142;11.618;2023-05-02T15:18:44;4.43;;;2.90;;
2748;SDS011;1382;52.142;11.618;2023-05-02T15:21:11;9.80;;;3.07;;
2748;SDS011;1382;52.142;11.618;2023-05-02T15:23:38;8.90;;;3.03;;
2748;SDS011;1382;52.142;11.618;2023-05-02T15:26:04;9.67;;;3.00;;
2748;SDS011;1382;52.142;11.618;2023-05-02T15:28:32;8.13;;;3.17;;
2748;SDS011;1382;52.142;11.618;2023-05-02T15:30:59;7.53;;;2.57;;
2748;SDS011;1382;52.142;11.618;2023-05-02T15:33:26;9.67;;;3.00;;